createdAt,value
2022-08-21T00:00:24.815Z,19.20
2022-08-21T00:02:56.746Z,19.20
2022-08-21T00:05:25.265Z,19.20
2022-08-21T00:07:52.291Z,19.20
2022-08-21T00:10:19.198Z,19.10
2022-08-21T00:12:47.357Z,19.10
2022-08-21T00:15:18.017Z,19.10
2022-08-21T00:17:44.601Z,19.00
2022-08-21T00:20:13.518Z,19.00
2022-08-21T00:22:40.671Z,19.00
2022-08-21T00:25:08.625Z,18.90
2022-08-21T00:27:35.253Z,18.80
2022-08-21T00:30:02.039Z,18.80
2022-08-21T00:32:29.345Z,18.70
2022-08-21T00:34:55.947Z,18.70
2022-08-21T00:37:25.754Z,18.70
2022-08-21T00:39:52.550Z,18.70
2022-08-21T00:42:20.870Z,18.70
2022-08-21T00:44:49.183Z,18.80
2022-08-21T00:47:15.791Z,18.80
2022-08-21T00:49:42.333Z,18.90
2022-08-21T00:52:14.742Z,18.80
2022-08-21T00:54:44.129Z,18.80
2022-08-21T00:57:21.879Z,18.80
2022-08-21T00:59:53.301Z,18.70
2022-08-21T01:02:21.324Z,18.70
2022-08-21T01:04:48.394Z,18.70
2022-08-21T01:07:14.926Z,18.70
2022-08-21T01:09:42.506Z,18.70
2022-08-21T01:12:10.710Z,18.60
2022-08-21T01:14:37.451Z,18.60
2022-08-21T01:17:04.564Z,18.60
2022-08-21T01:19:31.549Z,18.50
2022-08-21T01:21:58.017Z,18.50
2022-08-21T01:24:24.514Z,18.40
2022-08-21T01:26:52.207Z,18.30
2022-08-21T01:29:36.926Z,18.30
2022-08-21T01:32:13.199Z,18.20
2022-08-21T01:34:43.506Z,18.30
2022-08-21T01:37:11.605Z,18.30
2022-08-21T01:39:38.646Z,18.30
2022-08-21T01:42:05.566Z,18.20
2022-08-21T01:44:32.546Z,18.30
2022-08-21T01:47:02.321Z,18.30
2022-08-21T01:49:28.832Z,18.30
2022-08-21T01:51:55.364Z,18.20
2022-08-21T01:54:22.114Z,18.10
2022-08-21T01:56:53.303Z,18.20
2022-08-21T01:59:21.447Z,18.10
2022-08-21T02:01:47.961Z,18.10
2022-08-21T02:04:14.895Z,18.10
2022-08-21T02:06:41.713Z,18.10
2022-08-21T02:09:10.433Z,18.00
2022-08-21T02:11:37.655Z,18.00
2022-08-21T02:14:04.276Z,17.90
2022-08-21T02:16:31.052Z,17.90
2022-08-21T02:18:57.803Z,17.90
2022-08-21T02:21:24.658Z,17.90
2022-08-21T02:23:51.120Z,17.80
2022-08-21T02:26:17.643Z,17.80
2022-08-21T02:28:45.025Z,17.70
2022-08-21T02:31:11.620Z,17.70
2022-08-21T02:33:38.153Z,17.70
2022-08-21T02:36:05.451Z,17.70
2022-08-21T02:38:35.602Z,17.60
2022-08-21T02:41:02.082Z,17.60
2022-08-21T02:43:28.729Z,17.60
2022-08-21T02:45:56.945Z,17.50
2022-08-21T02:48:27.384Z,17.50
2022-08-21T02:50:57.428Z,17.50
2022-08-21T02:53:24.770Z,17.50
2022-08-21T02:55:52.428Z,17.50
2022-08-21T02:58:25.401Z,17.40
2022-08-21T03:00:52.565Z,17.40
2022-08-21T03:03:19.304Z,17.40
2022-08-21T03:05:46.088Z,17.30
2022-08-21T03:08:15.231Z,17.40
2022-08-21T03:10:45.570Z,17.30
2022-08-21T03:13:12.339Z,17.30
2022-08-21T03:15:40.525Z,17.20
2022-08-21T03:18:09.012Z,17.20
2022-08-21T03:20:37.499Z,17.10
2022-08-21T03:23:07.695Z,17.10
2022-08-21T03:25:41.031Z,17.10
2022-08-21T03:28:13.377Z,17.00
2022-08-21T03:30:45.401Z,17.00
2022-08-21T03:33:14.942Z,17.00
2022-08-21T03:35:44.027Z,17.00
2022-08-21T03:38:10.767Z,17.00
2022-08-21T03:40:37.268Z,17.00
2022-08-21T03:43:03.741Z,16.90
2022-08-21T03:45:30.252Z,16.90
2022-08-21T03:48:02.434Z,16.80
2022-08-21T03:50:33.380Z,16.70
2022-08-21T03:53:01.657Z,16.70
2022-08-21T03:55:29.076Z,16.70
2022-08-21T03:57:55.626Z,16.70
2022-08-21T04:00:22.748Z,16.70
2022-08-21T04:02:49.765Z,16.60
2022-08-21T04:05:27.967Z,16.70
2022-08-21T04:08:03.585Z,16.60
2022-08-21T04:10:32.903Z,16.70
2022-08-21T04:12:59.634Z,16.70
2022-08-21T04:15:27.043Z,16.60
2022-08-21T04:17:54.638Z,16.60
2022-08-21T04:20:22.521Z,16.60
2022-08-21T04:22:49.850Z,16.60
2022-08-21T04:25:16.462Z,16.60
2022-08-21T04:27:43.535Z,16.60
2022-08-21T04:30:11.120Z,16.60
2022-08-21T04:32:38.369Z,16.60
2022-08-21T04:35:09.325Z,16.60
2022-08-21T04:37:36.077Z,16.60
2022-08-21T04:40:11.313Z,16.60
2022-08-21T04:42:51.921Z,16.50
2022-08-21T04:45:30.979Z,16.50
2022-08-21T04:48:00.354Z,16.70
2022-08-21T04:50:40.358Z,16.70
2022-08-21T04:53:09.665Z,16.80
2022-08-21T04:55:36.265Z,16.90
2022-08-21T04:58:02.917Z,16.90
2022-08-21T05:00:29.590Z,17.00
2022-08-21T05:03:00.119Z,17.00
2022-08-21T05:05:30.073Z,17.00
2022-08-21T05:07:59.955Z,17.00
2022-08-21T05:10:26.760Z,17.00
2022-08-21T05:12:54.010Z,17.10
2022-08-21T05:15:20.465Z,17.20
2022-08-21T05:17:52.533Z,17.20
2022-08-21T05:20:27.192Z,17.20
2022-08-21T05:22:53.631Z,17.30
2022-08-21T05:25:22.160Z,17.40
2022-08-21T05:27:50.096Z,17.50
2022-08-21T05:30:19.883Z,17.50
2022-08-21T05:32:46.781Z,17.60
2022-08-21T05:35:13.274Z,17.50
2022-08-21T05:37:40.183Z,17.60
2022-08-21T05:40:22.426Z,17.70
2022-08-21T05:42:56.570Z,17.70
2022-08-21T05:45:41.314Z,17.80
2022-08-21T05:48:13.528Z,17.90
2022-08-21T05:50:40.748Z,18.00
2022-08-21T05:53:07.994Z,18.10
2022-08-21T05:55:36.504Z,18.20
2022-08-21T05:58:03.297Z,18.20
2022-08-21T06:00:29.823Z,18.10
2022-08-21T06:02:56.898Z,18.00
2022-08-21T06:05:25.155Z,18.20
2022-08-21T06:08:03.890Z,18.30
2022-08-21T06:10:30.409Z,18.40
2022-08-21T06:12:57.099Z,18.40
2022-08-21T06:15:23.747Z,18.50
2022-08-21T06:17:50.478Z,18.60
2022-08-21T06:20:17.141Z,18.80
2022-08-21T06:22:43.599Z,19.20
2022-08-21T06:25:10.429Z,19.10
2022-08-21T06:27:37.330Z,19.00
2022-08-21T06:30:06.143Z,18.80
2022-08-21T06:32:32.614Z,18.80
2022-08-21T06:34:59.762Z,19.30
2022-08-21T06:37:26.282Z,19.40
2022-08-21T06:39:53.946Z,19.50
2022-08-21T06:42:20.668Z,19.50
2022-08-21T06:44:47.148Z,19.70
2022-08-21T06:47:13.837Z,19.70
2022-08-21T06:49:40.935Z,19.40
2022-08-21T06:52:11.839Z,20.00
2022-08-21T06:54:39.354Z,20.00
2022-08-21T06:57:06.077Z,20.00
2022-08-21T06:59:33.262Z,20.00
2022-08-21T07:02:00.680Z,20.60
2022-08-21T07:04:27.304Z,21.40
2022-08-21T07:06:53.971Z,21.10
2022-08-21T07:09:24.542Z,21.40
2022-08-21T07:11:54.767Z,21.20
2022-08-21T07:14:21.966Z,22.20
2022-08-21T07:16:49.960Z,23.30
2022-08-21T07:19:16.571Z,24.30
2022-08-21T07:21:43.009Z,25.30
2022-08-21T07:24:11.492Z,25.80
2022-08-21T07:26:38.130Z,26.00
2022-08-21T07:29:04.686Z,26.10
2022-08-21T07:31:31.805Z,26.40
2022-08-21T07:33:58.720Z,26.50
2022-08-21T07:36:25.194Z,26.90
2022-08-21T07:38:52.863Z,26.10
2022-08-21T07:41:22.777Z,24.90
2022-08-21T07:43:49.310Z,25.40
2022-08-21T07:46:19.512Z,25.90
2022-08-21T07:48:46.164Z,25.10
2022-08-21T07:51:14.344Z,26.00
2022-08-21T07:53:42.055Z,26.30
2022-08-21T07:56:11.983Z,27.60
2022-08-21T07:58:38.829Z,28.30
2022-08-21T08:01:07.319Z,28.10
2022-08-21T08:03:34.926Z,27.10
2022-08-21T08:06:01.820Z,28.70
2022-08-21T08:08:28.649Z,28.30
2022-08-21T08:10:57.607Z,27.50
2022-08-21T08:13:24.506Z,29.50
2022-08-21T08:15:52.676Z,28.30
2022-08-21T08:18:19.168Z,28.30
2022-08-21T08:20:45.893Z,27.10
2022-08-21T08:23:13.736Z,27.20
2022-08-21T08:25:40.283Z,28.30
2022-08-21T08:28:17.237Z,29.80
2022-08-21T08:30:48.056Z,28.60
2022-08-21T08:33:15.337Z,29.60
2022-08-21T08:35:48.502Z,29.30
2022-08-21T08:38:19.638Z,29.40
2022-08-21T08:40:55.685Z,29.10
2022-08-21T08:43:22.631Z,29.70
2022-08-21T08:45:52.092Z,30.40
2022-08-21T08:48:36.483Z,30.50
2022-08-21T08:51:05.945Z,30.50
2022-08-21T08:53:49.653Z,30.20
2022-08-21T08:56:16.271Z,29.90
2022-08-21T08:58:45.707Z,28.40
2022-08-21T09:01:17.612Z,28.90
2022-08-21T09:03:50.497Z,29.40
2022-08-21T09:06:37.220Z,29.20
2022-08-21T09:09:12.496Z,27.50
2022-08-21T09:11:58.305Z,28.20
2022-08-21T09:14:57.935Z,27.70
2022-08-21T09:17:37.520Z,26.90
2022-08-21T09:20:38.692Z,27.70
2022-08-21T09:23:23.090Z,27.10
2022-08-21T09:26:08.474Z,27.80
2022-08-21T09:28:36.058Z,27.60
2022-08-21T09:31:08.445Z,27.10
2022-08-21T09:33:34.936Z,26.50
2022-08-21T09:36:01.413Z,26.90
2022-08-21T09:38:34.121Z,27.00
2022-08-21T09:41:04.712Z,27.50
2022-08-21T09:43:32.231Z,26.60
2022-08-21T09:46:11.385Z,26.50
2022-08-21T09:48:45.302Z,26.50
2022-08-21T09:51:16.756Z,26.70
2022-08-21T09:53:47.575Z,26.80
2022-08-21T09:56:40.306Z,26.10
2022-08-21T09:59:15.763Z,26.40
2022-08-21T10:01:48.966Z,26.20
2022-08-21T10:04:15.972Z,26.10
2022-08-21T10:06:42.683Z,27.30
2022-08-21T10:09:21.502Z,27.20
2022-08-21T10:12:18.202Z,27.50
2022-08-21T10:14:49.144Z,27.60
2022-08-21T10:17:22.535Z,27.80
2022-08-21T10:20:03.351Z,26.60
2022-08-21T10:22:47.659Z,26.50
2022-08-21T10:25:36.432Z,26.10
2022-08-21T10:28:23.223Z,27.10
2022-08-21T10:30:59.501Z,26.80
2022-08-21T10:33:45.083Z,26.80
2022-08-21T10:36:36.658Z,27.20
2022-08-21T10:39:35.127Z,28.60
2022-08-21T10:42:24.854Z,27.60
2022-08-21T10:45:09.732Z,27.20
2022-08-21T10:48:01.451Z,28.40
2022-08-21T10:50:49.237Z,28.20
2022-08-21T10:53:48.878Z,28.70
2022-08-21T10:56:25.723Z,28.50
2022-08-21T10:59:01.446Z,29.10
2022-08-21T11:01:35.449Z,30.20
2022-08-21T11:04:19.089Z,30.40
2022-08-21T11:06:50.793Z,28.70
2022-08-21T11:09:22.955Z,29.30
2022-08-21T11:12:13.313Z,29.30
2022-08-21T11:14:53.364Z,30.80
2022-08-21T11:17:25.371Z,29.90
2022-08-21T11:20:00.345Z,29.70
2022-08-21T11:22:40.647Z,29.10
2022-08-21T11:25:19.778Z,28.80
2022-08-21T11:27:52.504Z,29.50
2022-08-21T11:30:19.428Z,28.10
2022-08-21T11:33:06.694Z,28.60
2022-08-21T11:35:40.711Z,28.90
2022-08-21T11:38:22.856Z,29.80
2022-08-21T11:41:03.050Z,29.50
2022-08-21T11:43:45.811Z,28.50
2022-08-21T11:46:20.557Z,29.80
2022-08-21T11:48:53.055Z,28.50
2022-08-21T11:51:27.010Z,28.20
2022-08-21T11:54:03.989Z,28.90
2022-08-21T11:56:40.011Z,28.50
2022-08-21T11:59:11.871Z,29.20
2022-08-21T12:01:45.568Z,29.20
2022-08-21T12:04:26.494Z,29.00
2022-08-21T12:06:53.057Z,28.70
2022-08-21T12:09:25.724Z,28.90
2022-08-21T12:12:21.699Z,28.80
2022-08-21T12:14:51.075Z,29.30
2022-08-21T12:17:35.761Z,28.80
2022-08-21T12:20:34.560Z,29.40
2022-08-21T12:23:19.593Z,29.60
2022-08-21T12:26:11.869Z,28.40
2022-08-21T12:28:38.611Z,29.10
2022-08-21T12:31:05.448Z,29.70
2022-08-21T12:33:40.227Z,29.60
2022-08-21T12:36:38.603Z,29.70
2022-08-21T12:39:11.654Z,30.20
2022-08-21T12:42:01.227Z,29.40
2022-08-21T12:44:55.832Z,29.30
2022-08-21T12:47:32.115Z,29.70
2022-08-21T12:50:08.139Z,29.60
2022-08-21T12:52:45.497Z,29.30
2022-08-21T12:55:17.446Z,29.80
2022-08-21T12:57:43.960Z,30.00
2022-08-21T13:00:14.125Z,29.90
2022-08-21T13:02:48.889Z,29.60
2022-08-21T13:05:21.390Z,30.10
2022-08-21T13:07:49.788Z,29.10
2022-08-21T13:10:27.513Z,28.90
2022-08-21T13:13:00.253Z,29.00
2022-08-21T13:15:34.084Z,29.30
2022-08-21T13:18:05.190Z,29.60
2022-08-21T13:20:41.953Z,29.30
2022-08-21T13:23:29.610Z,28.70
2022-08-21T13:25:57.351Z,28.00
2022-08-21T13:28:24.498Z,28.20
2022-08-21T13:30:56.701Z,28.20
2022-08-21T13:33:34.055Z,28.10
2022-08-21T13:36:16.076Z,27.80
2022-08-21T13:38:45.055Z,27.30
2022-08-21T13:41:17.550Z,27.20
2022-08-21T13:44:18.441Z,27.70
2022-08-21T13:46:49.415Z,27.30
2022-08-21T13:49:19.672Z,27.90
2022-08-21T13:51:47.659Z,28.60
2022-08-21T13:54:24.994Z,29.00
2022-08-21T13:56:51.494Z,29.50
2022-08-21T13:59:25.912Z,29.80
2022-08-21T14:01:59.974Z,29.70
2022-08-21T14:04:53.323Z,29.60
2022-08-21T14:07:25.466Z,29.80
2022-08-21T14:09:52.057Z,30.00
2022-08-21T14:12:28.424Z,30.40
2022-08-21T14:14:57.213Z,30.40
2022-08-21T14:17:36.306Z,29.70
2022-08-21T14:20:06.647Z,29.40
2022-08-21T14:22:41.049Z,29.50
2022-08-21T14:25:27.449Z,30.00
2022-08-21T14:28:19.988Z,30.40
2022-08-21T14:30:47.941Z,30.50
2022-08-21T14:33:29.334Z,30.50
2022-08-21T14:35:56.105Z,30.70
2022-08-21T14:38:25.731Z,30.10
2022-08-21T14:41:04.884Z,29.90
2022-08-21T14:43:32.201Z,29.50
2022-08-21T14:45:58.689Z,28.60
2022-08-21T14:48:25.569Z,28.80
2022-08-21T14:50:55.951Z,27.50
2022-08-21T14:53:24.928Z,27.80
2022-08-21T14:56:06.527Z,27.10
2022-08-21T14:58:35.772Z,27.50
2022-08-21T15:01:04.992Z,27.60
2022-08-21T15:03:32.079Z,28.10
2022-08-21T15:05:59.836Z,27.90
2022-08-21T15:08:26.508Z,27.80
2022-08-21T15:11:10.900Z,28.30
2022-08-21T15:13:38.537Z,28.40
2022-08-21T15:16:05.137Z,27.60
2022-08-21T15:18:31.927Z,27.70
2022-08-21T15:20:58.563Z,27.80
2022-08-21T15:23:25.120Z,28.00
2022-08-21T15:25:53.244Z,27.70
2022-08-21T15:28:22.096Z,28.10
2022-08-21T15:30:50.028Z,28.00
2022-08-21T15:33:16.659Z,27.60
2022-08-21T15:35:43.099Z,27.90
2022-08-21T15:38:11.093Z,28.20
2022-08-21T15:40:38.848Z,28.30
2022-08-21T15:43:06.329Z,27.90
2022-08-21T15:45:34.131Z,28.30
2022-08-21T15:48:01.724Z,28.10
2022-08-21T15:50:29.555Z,28.40
2022-08-21T15:55:35.033Z,27.90
2022-08-21T15:58:05.683Z,27.70
2022-08-21T16:00:35.549Z,28.10
2022-08-21T16:03:05.321Z,27.80
2022-08-21T16:05:32.772Z,27.90
2022-08-21T16:07:59.561Z,28.00
2022-08-21T16:10:29.815Z,27.50
2022-08-21T16:13:01.886Z,27.40
2022-08-21T16:15:28.595Z,27.60
2022-08-21T16:17:55.738Z,27.40
2022-08-21T16:20:26.173Z,27.10
2022-08-21T16:22:54.260Z,26.70
2022-08-21T16:25:21.085Z,26.70
2022-08-21T16:27:52.623Z,26.90
2022-08-21T16:30:24.528Z,26.60
2022-08-21T16:32:51.822Z,27.10
2022-08-21T16:35:20.767Z,26.80
2022-08-21T16:37:52.380Z,26.40
2022-08-21T16:40:19.584Z,26.40
2022-08-21T16:42:46.346Z,26.90
2022-08-21T16:45:16.497Z,26.60
2022-08-21T16:47:44.603Z,26.80
2022-08-21T16:50:15.303Z,26.00
2022-08-21T16:52:41.632Z,26.70
2022-08-21T16:55:09.130Z,26.50
2022-08-21T16:57:36.859Z,26.50
2022-08-21T17:00:08.702Z,26.10
2022-08-21T17:02:38.558Z,26.30
2022-08-21T17:05:06.710Z,26.20
2022-08-21T17:07:40.967Z,26.50
2022-08-21T17:10:08.943Z,26.10
2022-08-21T17:12:35.831Z,25.80
2022-08-21T17:15:07.796Z,25.90
2022-08-21T17:17:35.626Z,25.70
2022-08-21T17:20:02.365Z,25.70
2022-08-21T17:22:28.943Z,25.20
2022-08-21T17:24:55.405Z,25.40
2022-08-21T17:27:26.652Z,25.30
2022-08-21T17:29:54.663Z,25.30
2022-08-21T17:32:21.181Z,25.00
2022-08-21T17:34:47.801Z,25.10
2022-08-21T17:37:15.174Z,24.90
2022-08-21T17:39:42.007Z,24.50
2022-08-21T17:42:11.656Z,24.40
2022-08-21T17:44:41.811Z,24.30
2022-08-21T17:47:08.738Z,24.20
2022-08-21T17:49:35.897Z,24.30
2022-08-21T17:52:02.442Z,24.20
2022-08-21T17:54:29.139Z,24.20
2022-08-21T17:56:56.318Z,24.00
2022-08-21T17:59:26.620Z,23.60
2022-08-21T18:01:58.493Z,23.50
2022-08-21T18:04:25.023Z,23.20
2022-08-21T18:06:51.481Z,23.10
2022-08-21T18:09:18.411Z,23.10
2022-08-21T18:11:44.960Z,22.80
2022-08-21T18:14:12.103Z,22.70
2022-08-21T18:16:38.908Z,22.60
2022-08-21T18:19:09.794Z,22.40
2022-08-21T18:21:36.393Z,22.20
2022-08-21T18:24:03.052Z,22.10
2022-08-21T18:26:32.845Z,21.80
2022-08-21T18:29:01.588Z,21.70
2022-08-21T18:31:30.093Z,21.60
2022-08-21T18:33:58.368Z,21.40
2022-08-21T18:36:29.368Z,21.30
2022-08-21T18:39:08.675Z,21.20
2022-08-21T18:41:44.189Z,21.10
2022-08-21T18:44:12.579Z,20.90
2022-08-21T18:46:39.147Z,20.80
2022-08-21T18:49:07.902Z,20.80
2022-08-21T18:51:36.645Z,20.60
2022-08-21T18:54:03.641Z,20.50
2022-08-21T18:56:30.859Z,20.50
2022-08-21T18:58:59.412Z,20.20
2022-08-21T19:01:26.150Z,20.10
2022-08-21T19:03:52.683Z,20.00
2022-08-21T19:06:19.217Z,19.80
2022-08-21T19:08:45.715Z,19.70
2022-08-21T19:11:12.422Z,19.60
2022-08-21T19:13:39.562Z,19.40
2022-08-21T19:16:06.265Z,19.30
2022-08-21T19:18:52.737Z,19.30
2022-08-21T19:21:20.806Z,19.20
2022-08-21T19:23:52.785Z,19.10
2022-08-21T19:26:22.143Z,19.10
2022-08-21T19:28:52.503Z,19.10
2022-08-21T19:31:28.898Z,18.90
2022-08-21T19:34:02.632Z,18.70
2022-08-21T19:36:30.292Z,18.80
2022-08-21T19:38:57.079Z,18.60
2022-08-21T19:41:27.480Z,18.60
2022-08-21T19:43:57.323Z,18.50
2022-08-21T19:46:27.445Z,18.50
2022-08-21T19:48:55.643Z,18.30
2022-08-21T19:51:23.168Z,18.20
2022-08-21T19:53:56.999Z,18.10
2022-08-21T19:56:26.525Z,18.10
2022-08-21T19:58:53.446Z,18.10
2022-08-21T20:01:22.248Z,18.10
2022-08-21T20:03:54.410Z,18.00
2022-08-21T20:06:24.058Z,18.00
2022-08-21T20:08:51.859Z,17.90
2022-08-21T20:11:25.776Z,17.90
2022-08-21T20:13:52.261Z,17.70
2022-08-21T20:16:21.442Z,17.70
2022-08-21T20:18:48.954Z,17.70
2022-08-21T20:21:16.040Z,17.70
2022-08-21T20:23:48.848Z,17.60
2022-08-21T20:26:29.906Z,17.50
2022-08-21T20:28:57.387Z,17.50
2022-08-21T20:31:26.901Z,17.40
2022-08-21T20:33:54.488Z,17.40
2022-08-21T20:36:22.497Z,17.30
2022-08-21T20:38:51.803Z,17.30
2022-08-21T20:44:14.041Z,17.20
2022-08-21T20:46:40.528Z,17.10
2022-08-21T20:49:09.275Z,17.00
2022-08-21T20:51:56.392Z,17.00
2022-08-21T20:54:33.721Z,17.00
2022-08-21T20:57:13.820Z,17.00
2022-08-21T21:00:01.301Z,16.90
2022-08-21T21:03:06.069Z,16.80
2022-08-21T21:05:42.872Z,16.80
2022-08-21T21:08:17.644Z,16.80
2022-08-21T21:10:49.130Z,16.70
2022-08-21T21:13:32.590Z,16.70
2022-08-21T21:16:04.320Z,16.70
2022-08-21T21:18:40.789Z,16.70
2022-08-21T21:21:36.873Z,16.60
2022-08-21T21:24:07.655Z,16.60
2022-08-21T21:26:44.588Z,16.50
2022-08-21T21:29:20.888Z,16.50
2022-08-21T21:31:47.743Z,16.40
2022-08-21T21:34:17.075Z,16.40
2022-08-21T21:36:56.194Z,16.30
2022-08-21T21:39:51.118Z,16.30
2022-08-21T21:42:29.960Z,16.30
2022-08-21T21:45:12.961Z,16.30
2022-08-21T21:48:03.159Z,16.30
2022-08-21T21:50:53.178Z,16.30
2022-08-21T21:53:38.784Z,16.10
2022-08-21T21:56:08.231Z,16.20
2022-08-21T21:59:17.272Z,16.10
2022-08-21T22:01:51.197Z,16.10
2022-08-21T22:04:35.797Z,16.10
2022-08-21T22:07:28.876Z,16.10
2022-08-21T22:10:06.845Z,16.20
2022-08-21T22:13:13.512Z,16.30
2022-08-21T22:15:52.227Z,16.30
2022-08-21T22:18:22.784Z,16.30
2022-08-21T22:21:09.289Z,16.30
2022-08-21T22:23:54.362Z,16.20
2022-08-21T22:26:31.245Z,16.20
2022-08-21T22:28:59.037Z,16.30
2022-08-21T22:31:31.386Z,16.20
2022-08-21T22:34:18.362Z,16.20
2022-08-21T22:36:54.757Z,16.30
2022-08-21T22:39:44.535Z,16.20
2022-08-21T22:42:14.220Z,16.20
2022-08-21T22:44:51.064Z,16.20
2022-08-21T22:47:25.010Z,16.10
2022-08-21T22:49:54.224Z,16.20
2022-08-21T22:52:33.091Z,16.10
2022-08-21T22:55:30.703Z,16.10
2022-08-21T22:58:13.071Z,16.10
2022-08-21T23:00:49.710Z,16.10
2022-08-21T23:03:30.420Z,16.10
2022-08-21T23:06:01.154Z,16.10
2022-08-21T23:08:35.996Z,16.00
2022-08-21T23:11:12.586Z,16.00
2022-08-21T23:13:44.379Z,16.10
2022-08-21T23:16:47.572Z,16.00
2022-08-21T23:19:17.518Z,16.10
2022-08-21T23:22:04.812Z,16.00
2022-08-21T23:24:49.740Z,16.00
2022-08-21T23:27:49.014Z,16.00
2022-08-21T23:30:22.855Z,16.00
2022-08-21T23:32:58.691Z,16.00
2022-08-21T23:36:08.880Z,15.90
2022-08-21T23:39:02.608Z,15.90
2022-08-21T23:41:43.948Z,15.80
2022-08-21T23:44:31.897Z,15.90
2022-08-21T23:47:33.433Z,15.80
2022-08-21T23:50:37.899Z,15.70
2022-08-21T23:53:29.047Z,15.60
2022-08-21T23:56:13.379Z,15.60
2022-08-21T23:58:48.344Z,15.60
